sensor_id;sensor_type;location;lat;lon;timestamp;pressure;altitude;pressure_sealevel;temperature;humidity
76448;BME280;65284;51.040;13.722;2023-02-15T00:01:43;101480.72;;;0.98;88.44
76448;BME280;65284;51.040;13.722;2023-02-15T00:04:12;101484.19;;;0.99;88.42
76448;BME280;65284;51.040;13.722;2023-02-15T00:06:38;101480.63;;;1.00;88.57
76448;BME280;65284;51.040;13.722;2023-02-15T00:09:05;101482.41;;;0.99;88.18
76448;BME280;65284;51.040;13.722;2023-02-15T00:11:32;101491.19;;;0.98;88.63
76448;BME280;65284;51.040;13.722;2023-02-15T00:14:19;101482.34;;;1.01;88.18
76448;BME280;65284;51.040;13.722;2023-02-15T00:16:47;101486.78;;;0.99;88.63
76448;BME280;65284;51.040;13.722;2023-02-15T00:19:15;101476.38;;;0.97;88.58
76448;BME280;65284;51.040;13.722;2023-02-15T00:21:43;101473.03;;;0.94;88.68
76448;BME280;65284;51.040;13.722;2023-02-15T00:24:11;101470.56;;;0.90;88.68
76448;BME280;65284;51.040;13.722;2023-02-15T00:26:39;101476.59;;;0.93;88.65
76448;BME280;65284;51.040;13.722;2023-02-15T00:29:07;101470.56;;;0.90;88.60
76448;BME280;65284;51.040;13.722;2023-02-15T00:31:34;101475.13;;;0.85;88.67
76448;BME280;65284;51.040;13.722;2023-02-15T00:36:31;101474.34;;;0.83;88.71
76448;BME280;65284;51.040;13.722;2023-02-15T00:38:58;101474.22;;;0.86;88.59
76448;BME280;65284;51.040;13.722;2023-02-15T00:41:25;101474.22;;;0.86;88.61
76448;BME280;65284;51.040;13.722;2023-02-15T00:43:51;101465.56;;;0.84;88.60
76448;BME280;65284;51.040;13.722;2023-02-15T00:46:18;101463.88;;;0.83;88.60
76448;BME280;65284;51.040;13.722;2023-02-15T00:48:44;101453.44;;;0.83;88.60
76448;BME280;65284;51.040;13.722;2023-02-15T00:51:10;101460.47;;;0.81;88.53
76448;BME280;65284;51.040;13.722;2023-02-15T00:53:37;101455.25;;;0.81;88.47
76448;BME280;65284;51.040;13.722;2023-02-15T00:56:05;101453.56;;;0.80;88.55
76448;BME280;65284;51.040;13.722;2023-02-15T00:58:31;101454.41;;;0.81;88.54
76448;BME280;65284;51.040;13.722;2023-02-15T01:01:04;101448.19;;;0.83;88.61
76448;BME280;65284;51.040;13.722;2023-02-15T01:03:32;101443.22;;;0.77;88.47
76448;BME280;65284;51.040;13.722;2023-02-15T01:05:58;101445.88;;;0.76;88.68
76448;BME280;65284;51.040;13.722;2023-02-15T01:08:25;101441.63;;;0.73;88.62
76448;BME280;65284;51.040;13.722;2023-02-15T01:10:52;101443.34;;;0.74;88.93
76448;BME280;65284;51.040;13.722;2023-02-15T01:13:19;101438.97;;;0.75;88.62
76448;BME280;65284;51.040;13.722;2023-02-15T01:15:52;101439.00;;;0.73;88.75
76448;BME280;65284;51.040;13.722;2023-02-15T01:18:19;101433.78;;;0.73;88.94
76448;BME280;65284;51.040;13.722;2023-02-15T01:20:45;101429.59;;;0.69;88.66
76448;BME280;65284;51.040;13.722;2023-02-15T01:23:13;101441.63;;;0.73;88.78
76448;BME280;65284;51.040;13.722;2023-02-15T01:25:40;101439.81;;;0.75;88.72
76448;BME280;65284;51.040;13.722;2023-02-15T01:28:07;101439.81;;;0.75;88.80
76448;BME280;65284;51.040;13.722;2023-02-15T01:30:33;101433.09;;;0.68;89.02
76448;BME280;65284;51.040;13.722;2023-02-15T01:33:00;101435.41;;;0.76;89.14
76448;BME280;65284;51.040;13.722;2023-02-15T01:35:27;101434.69;;;0.72;88.96
76448;BME280;65284;51.040;13.722;2023-02-15T01:37:55;101436.53;;;0.70;88.80
76448;BME280;65284;51.040;13.722;2023-02-15T01:40:22;101433.00;;;0.71;88.83
76448;BME280;65284;51.040;13.722;2023-02-15T01:42:53;101420.84;;;0.70;88.92
76448;BME280;65284;51.040;13.722;2023-02-15T01:45:29;101416.53;;;0.69;89.01
76448;BME280;65284;51.040;13.722;2023-02-15T01:48:19;101412.69;;;0.78;88.69
76448;BME280;65284;51.040;13.722;2023-02-15T01:50:53;101409.53;;;0.70;88.98
76448;BME280;65284;51.040;13.722;2023-02-15T01:53:34;101410.50;;;0.67;88.95
76448;BME280;65284;51.040;13.722;2023-02-15T01:56:09;101394.94;;;0.64;89.17
76448;BME280;65284;51.040;13.722;2023-02-15T01:58:37;101387.31;;;0.59;89.35
76448;BME280;65284;51.040;13.722;2023-02-15T02:01:07;101386.56;;;0.56;89.43
76448;BME280;65284;51.040;13.722;2023-02-15T02:06:25;101383.91;;;0.57;89.44
76448;BME280;65284;51.040;13.722;2023-02-15T02:08:53;101384.88;;;0.55;89.31
76448;BME280;65284;51.040;13.722;2023-02-15T02:11:21;101376.78;;;0.61;89.01
76448;BME280;65284;51.040;13.722;2023-02-15T02:13:48;101373.50;;;0.56;89.36
76448;BME280;65284;51.040;13.722;2023-02-15T02:16:46;101375.97;;;0.59;89.31
76448;BME280;65284;51.040;13.722;2023-02-15T02:19:34;101369.91;;;0.58;89.28
76448;BME280;65284;51.040;13.722;2023-02-15T02:22:28;101366.53;;;0.56;89.28
76448;BME280;65284;51.040;13.722;2023-02-15T02:25:29;101371.84;;;0.53;89.13
76448;BME280;65284;51.040;13.722;2023-02-15T02:37:08;101362.28;;;0.54;89.24
76448;BME280;65284;51.040;13.722;2023-02-15T02:40:04;101359.13;;;0.45;89.54
76448;BME280;65284;51.040;13.722;2023-02-15T02:42:43;101353.75;;;0.49;89.36
76448;BME280;65284;51.040;13.722;2023-02-15T02:45:20;101359.13;;;0.45;89.49
76448;BME280;65284;51.040;13.722;2023-02-15T02:47:56;101360.09;;;0.43;89.44
76448;BME280;65284;51.040;13.722;2023-02-15T02:50:28;101352.06;;;0.48;89.24
76448;BME280;65284;51.040;13.722;2023-02-15T02:52:57;101359.97;;;0.46;89.43
76448;BME280;65284;51.040;13.722;2023-02-15T02:55:36;101353.81;;;0.47;89.43
76448;BME280;65284;51.040;13.722;2023-02-15T02:58:20;101357.56;;;0.41;89.40
76448;BME280;65284;51.040;13.722;2023-02-15T03:00:55;101350.59;;;0.40;89.21
76448;BME280;65284;51.040;13.722;2023-02-15T03:03:38;101346.34;;;0.38;89.35
76448;BME280;65284;51.040;13.722;2023-02-15T03:06:12;101347.09;;;0.41;89.30
76448;BME280;65284;51.040;13.722;2023-02-15T03:08:49;101352.31;;;0.41;89.13
76448;BME280;65284;51.040;13.722;2023-02-15T03:11:17;101342.75;;;0.40;89.26
76448;BME280;65284;51.040;13.722;2023-02-15T03:13:44;101352.31;;;0.41;89.53
76448;BME280;65284;51.040;13.722;2023-02-15T03:16:13;101353.41;;;0.36;89.28
76448;BME280;65284;51.040;13.722;2023-02-15T03:19:02;101351.06;;;0.30;89.30
76448;BME280;65284;51.040;13.722;2023-02-15T03:21:48;101353.53;;;0.33;89.31
76448;BME280;65284;51.040;13.722;2023-02-15T03:24:34;101353.66;;;0.30;89.33
76448;BME280;65284;51.040;13.722;2023-02-15T03:27:04;101349.47;;;0.26;89.39
76448;BME280;65284;51.040;13.722;2023-02-15T03:29:33;101348.50;;;0.28;89.63
76448;BME280;65284;51.040;13.722;2023-02-15T03:32:03;101350.97;;;0.31;89.12
76448;BME280;65284;51.040;13.722;2023-02-15T03:34:31;101358.91;;;0.30;89.19
76448;BME280;65284;51.040;13.722;2023-02-15T03:39:44;101357.63;;;0.18;89.50
76448;BME280;65284;51.040;13.722;2023-02-15T03:42:31;101351.59;;;0.16;89.39
76448;BME280;65284;51.040;13.722;2023-02-15T03:45:05;101354.22;;;0.16;89.58
76448;BME280;65284;51.040;13.722;2023-02-15T03:47:40;101357.63;;;0.18;89.41
76448;BME280;65284;51.040;13.722;2023-02-15T03:50:18;101356.69;;;0.19;89.58
76448;BME280;65284;51.040;13.722;2023-02-15T03:53:06;101349.91;;;0.15;89.43
76448;BME280;65284;51.040;13.722;2023-02-15T03:55:34;101348.19;;;0.14;89.41
76448;BME280;65284;51.040;13.722;2023-02-15T03:58:01;101355.22;;;0.12;89.57
76448;BME280;65284;51.040;13.722;2023-02-15T04:00:57;101347.47;;;0.10;89.66
76448;BME280;65284;51.040;13.722;2023-02-15T04:03:48;101351.84;;;0.10;89.51
76448;BME280;65284;51.040;13.722;2023-02-15T04:06:17;101348.31;;;0.11;89.49
76448;BME280;65284;51.040;13.722;2023-02-15T04:08:44;101352.75;;;0.09;89.92
76448;BME280;65284;51.040;13.722;2023-02-15T04:11:29;101353.53;;;0.11;89.75
76448;BME280;65284;51.040;13.722;2023-02-15T04:13:56;101346.66;;;0.08;89.39
76448;BME280;65284;51.040;13.722;2023-02-15T04:16:24;101346.88;;;0.04;89.28
76448;BME280;65284;51.040;13.722;2023-02-15T04:18:51;101340.84;;;0.02;89.72
76448;BME280;65284;51.040;13.722;2023-02-15T04:21:36;101341.66;;;0.04;89.73
76448;BME280;65284;51.040;13.722;2023-02-15T04:24:21;101348.84;;;-0.03;90.02
76448;BME280;65284;51.040;13.722;2023-02-15T04:27:06;101346.16;;;0.00;89.94
76448;BME280;65284;51.040;13.722;2023-02-15T04:29:32;101342.41;;;0.06;89.69
76448;BME280;65284;51.040;13.722;2023-02-15T04:32:00;101337.25;;;0.04;89.62
76448;BME280;65284;51.040;13.722;2023-02-15T04:34:27;101336.44;;;0.04;89.80
76448;BME280;65284;51.040;13.722;2023-02-15T04:36:53;101338.97;;;0.05;89.76
76448;BME280;65284;51.040;13.722;2023-02-15T04:39:19;101343.34;;;0.05;90.03
76448;BME280;65284;51.040;13.722;2023-02-15T04:41:46;101341.53;;;0.07;89.71
76448;BME280;65284;51.040;13.722;2023-02-15T04:44:13;101348.56;;;0.05;89.87
76448;BME280;65284;51.040;13.722;2023-02-15T04:46:40;101332.75;;;0.08;89.80
76448;BME280;65284;51.040;13.722;2023-02-15T04:49:08;101332.88;;;0.05;89.60
76448;BME280;65284;51.040;13.722;2023-02-15T04:51:34;101327.66;;;0.05;89.73
76448;BME280;65284;51.040;13.722;2023-02-15T04:54:01;101320.88;;;0.01;90.23
76448;BME280;65284;51.040;13.722;2023-02-15T04:56:27;101319.03;;;0.03;89.89
76448;BME280;65284;51.040;13.722;2023-02-15T04:58:56;101313.75;;;0.04;89.83
76448;BME280;65284;51.040;13.722;2023-02-15T05:01:22;101315.44;;;0.05;89.75
76448;BME280;65284;51.040;13.722;2023-02-15T05:03:48;101310.31;;;0.04;89.79
76448;BME280;65284;51.040;13.722;2023-02-15T05:06:15;101308.47;;;0.06;89.85
76448;BME280;65284;51.040;13.722;2023-02-15T05:08:41;101308.59;;;0.03;89.52
76448;BME280;65284;51.040;13.722;2023-02-15T05:11:08;101305.22;;;0.01;89.80
76448;BME280;65284;51.040;13.722;2023-02-15T05:13:34;101308.72;;;-0.01;89.71
76448;BME280;65284;51.040;13.722;2023-02-15T05:16:01;101307.16;;;-0.05;89.91
76448;BME280;65284;51.040;13.722;2023-02-15T05:18:27;101306.09;;;-0.01;90.37
76448;BME280;65284;51.040;13.722;2023-02-15T05:20:54;101296.19;;;0.08;89.87
76448;BME280;65284;51.040;13.722;2023-02-15T05:23:20;101297.97;;;0.07;89.93
76448;BME280;65284;51.040;13.722;2023-02-15T05:25:48;101301.66;;;0.02;89.63
76448;BME280;65284;51.040;13.722;2023-02-15T05:28:35;101301.75;;;0.00;89.88
76448;BME280;65284;51.040;13.722;2023-02-15T05:31:14;101300.03;;;-0.01;89.60
76448;BME280;65284;51.040;13.722;2023-02-15T05:33:42;101289.66;;;-0.03;89.88
76448;BME280;65284;51.040;13.722;2023-02-15T05:36:09;101298.50;;;-0.07;89.84
76448;BME280;65284;51.040;13.722;2023-02-15T05:38:36;101293.41;;;-0.10;90.03
76448;BME280;65284;51.040;13.722;2023-02-15T05:41:07;101296.16;;;-0.13;89.98
76448;BME280;65284;51.040;13.722;2023-02-15T05:43:33;101302.16;;;-0.11;89.95
76448;BME280;65284;51.040;13.722;2023-02-15T05:46:00;101300.53;;;-0.13;89.81
76448;BME280;65284;51.040;13.722;2023-02-15T05:48:28;101295.34;;;-0.15;89.81
76448;BME280;65284;51.040;13.722;2023-02-15T05:51:09;101298.88;;;-0.16;89.96
76448;BME280;65284;51.040;13.722;2023-02-15T05:53:37;101304.78;;;-0.11;89.50
76448;BME280;65284;51.040;13.722;2023-02-15T05:56:05;101298.88;;;-0.16;89.51
76448;BME280;65284;51.040;13.722;2023-02-15T05:58:34;101301.50;;;-0.16;89.49
76448;BME280;65284;51.040;13.722;2023-02-15T06:01:10;101304.22;;;-0.19;89.70
76448;BME280;65284;51.040;13.722;2023-02-15T06:03:37;101306.78;;;-0.17;89.70
76448;BME280;65284;51.040;13.722;2023-02-15T06:06:03;101300.47;;;-0.12;89.41
76448;BME280;65284;51.040;13.722;2023-02-15T06:08:31;101302.53;;;-0.20;89.67
76448;BME280;65284;51.040;13.722;2023-02-15T06:10:58;101303.25;;;-0.16;89.34
76448;BME280;65284;51.040;13.722;2023-02-15T06:13:25;101302.53;;;-0.20;89.57
76448;BME280;65284;51.040;13.722;2023-02-15T06:15:51;101299.13;;;-0.22;89.72
76448;BME280;65284;51.040;13.722;2023-02-15T06:18:17;101302.41;;;-0.17;89.82
76448;BME280;65284;51.040;13.722;2023-02-15T06:20:47;101303.97;;;-0.13;89.70
76448;BME280;65284;51.040;13.722;2023-02-15T06:23:14;101305.78;;;-0.15;89.91
76448;BME280;65284;51.040;13.722;2023-02-15T06:25:41;101303.25;;;-0.16;89.66
76448;BME280;65284;51.040;13.722;2023-02-15T06:28:07;101296.34;;;-0.17;89.42
76448;BME280;65284;51.040;13.722;2023-02-15T06:30:34;101296.25;;;-0.16;89.38
76448;BME280;65284;51.040;13.722;2023-02-15T06:33:00;101300.69;;;-0.18;89.26
76448;BME280;65284;51.040;13.722;2023-02-15T06:35:26;101296.34;;;-0.17;89.28
76448;BME280;65284;51.040;13.722;2023-02-15T06:37:53;101293.66;;;-0.16;89.10
76448;BME280;65284;51.040;13.722;2023-02-15T06:40:19;101294.38;;;-0.12;89.02
76448;BME280;65284;51.040;13.722;2023-02-15T06:42:46;101293.66;;;-0.16;88.81
76448;BME280;65284;51.040;13.722;2023-02-15T06:45:12;101303.97;;;-0.13;89.03
76448;BME280;65284;51.040;13.722;2023-02-15T06:47:39;101302.97;;;-0.09;88.86
76448;BME280;65284;51.040;13.722;2023-02-15T06:50:06;101295.34;;;-0.15;89.17
76448;BME280;65284;51.040;13.722;2023-02-15T06:52:33;101293.53;;;-0.13;88.98
76448;BME280;65284;51.040;13.722;2023-02-15T06:54:59;101293.28;;;-0.07;88.75
76448;BME280;65284;51.040;13.722;2023-02-15T06:57:26;101293.16;;;-0.04;88.91
76448;BME280;65284;51.040;13.722;2023-02-15T06:59:52;101279.22;;;-0.03;89.02
76448;BME280;65284;51.040;13.722;2023-02-15T07:02:19;101283.75;;;-0.08;88.59
76448;BME280;65284;51.040;13.722;2023-02-15T07:04:45;101281.03;;;-0.05;88.84
76448;BME280;65284;51.040;13.722;2023-02-15T07:07:12;101280.91;;;-0.02;88.56
76448;BME280;65284;51.040;13.722;2023-02-15T07:09:38;101287.94;;;-0.04;88.68
76448;BME280;65284;51.040;13.722;2023-02-15T07:12:05;101280.91;;;-0.02;88.70
76448;BME280;65284;51.040;13.722;2023-02-15T07:14:52;101273.13;;;-0.03;88.52
76448;BME280;65284;51.040;13.722;2023-02-15T07:17:18;101274.63;;;0.03;88.46
76448;BME280;65284;51.040;13.722;2023-02-15T07:20:27;101278.03;;;0.05;88.34
76448;BME280;65284;51.040;13.722;2023-02-15T07:22:52;101271.06;;;0.05;88.16
76448;BME280;65284;51.040;13.722;2023-02-15T07:25:19;101271.63;;;0.12;88.27
76448;BME280;65284;51.040;13.722;2023-02-15T07:27:45;101268.13;;;0.13;87.96
76448;BME280;65284;51.040;13.722;2023-02-15T07:30:14;101268.00;;;0.16;88.05
76448;BME280;65284;51.040;13.722;2023-02-15T07:32:42;101268.44;;;0.27;87.83
76448;BME280;65284;51.040;13.722;2023-02-15T07:35:30;101268.34;;;0.29;87.80
76448;BME280;65284;51.040;13.722;2023-02-15T07:37:56;101265.94;;;0.24;87.90
76448;BME280;65284;51.040;13.722;2023-02-15T07:40:23;101252.34;;;0.36;87.38
76448;BME280;65284;51.040;13.722;2023-02-15T07:42:50;101256.66;;;0.37;87.48
76448;BME280;65284;51.040;13.722;2023-02-15T07:45:20;101253.03;;;0.41;87.36
76448;BME280;65284;51.040;13.722;2023-02-15T07:47:46;101246.72;;;0.45;87.52
76448;BME280;65284;51.040;13.722;2023-02-15T07:50:13;101250.13;;;0.48;87.20
76448;BME280;65284;51.040;13.722;2023-02-15T07:52:39;101246.28;;;0.56;86.99
76448;BME280;65284;51.040;13.722;2023-02-15T07:55:06;101246.59;;;0.69;86.99
76448;BME280;65284;51.040;13.722;2023-02-15T07:57:34;101246.19;;;0.78;87.01
76448;BME280;65284;51.040;13.722;2023-02-15T08:00:01;101237.78;;;0.90;86.70
76448;BME280;65284;51.040;13.722;2023-02-15T08:02:27;101230.78;;;0.91;85.93
76448;BME280;65284;51.040;13.722;2023-02-15T08:04:55;101229.28;;;0.85;86.28
76448;BME280;65284;51.040;13.722;2023-02-15T08:07:21;101227.19;;;0.94;85.91
76448;BME280;65284;51.040;13.722;2023-02-15T08:09:47;101221.94;;;0.94;86.35
76448;BME280;65284;51.040;13.722;2023-02-15T08:12:14;101225.41;;;0.94;86.37
76448;BME280;65284;51.040;13.722;2023-02-15T08:14:40;101226.25;;;0.95;86.33
76448;BME280;65284;51.040;13.722;2023-02-15T08:17:07;101214.47;;;1.05;86.22
76448;BME280;65284;51.040;13.722;2023-02-15T08:19:33;101214.25;;;1.09;86.11
76448;BME280;65284;51.040;13.722;2023-02-15T08:22:07;101206.19;;;1.14;85.96
76448;BME280;65284;51.040;13.722;2023-02-15T08:24:38;101217.16;;;1.22;85.30
76448;BME280;65284;51.040;13.722;2023-02-15T08:27:06;101211.66;;;1.28;85.65
76448;BME280;65284;51.040;13.722;2023-02-15T08:29:34;101207.75;;;1.37;85.02
76448;BME280;65284;51.040;13.722;2023-02-15T08:32:04;101183.97;;;1.42;85.29
76448;BME280;65284;51.040;13.722;2023-02-15T08:34:33;101204.97;;;1.40;85.26
76448;BME280;65284;51.040;13.722;2023-02-15T08:37:00;101203.59;;;1.50;84.92
76448;BME280;65284;51.040;13.722;2023-02-15T08:39:27;101206.16;;;1.52;84.55
76448;BME280;65284;51.040;13.722;2023-02-15T08:41:53;101197.31;;;1.54;84.54
76448;BME280;65284;51.040;13.722;2023-02-15T08:44:19;101206.22;;;1.69;83.83
76448;BME280;65284;51.040;13.722;2023-02-15T08:46:48;101199.28;;;1.86;83.32
76448;BME280;65284;51.040;13.722;2023-02-15T08:49:17;101201.00;;;1.87;83.07
76448;BME280;65284;51.040;13.722;2023-02-15T08:51:44;101201.16;;;1.84;83.19
76448;BME280;65284;51.040;13.722;2023-02-15T08:54:15;101195.44;;;1.93;82.72
76448;BME280;65284;51.040;13.722;2023-02-15T08:56:43;101192.06;;;1.91;82.59
76448;BME280;65284;51.040;13.722;2023-02-15T08:59:21;101192.84;;;1.93;82.70
76448;BME280;65284;51.040;13.722;2023-02-15T09:01:50;101206.47;;;1.99;82.69
76448;BME280;65284;51.040;13.722;2023-02-15T09:04:17;101203.47;;;2.07;82.25
76448;BME280;65284;51.040;13.722;2023-02-15T09:06:44;101202.59;;;2.07;82.44
76448;BME280;65284;51.040;13.722;2023-02-15T09:09:14;101194.38;;;2.14;82.02
76448;BME280;65284;51.040;13.722;2023-02-15T09:11:44;101194.22;;;2.17;81.58
76448;BME280;65284;51.040;13.722;2023-02-15T09:14:11;101186.03;;;2.23;81.47
76448;BME280;65284;51.040;13.722;2023-02-15T09:16:41;101190.81;;;2.33;80.98
76448;BME280;65284;51.040;13.722;2023-02-15T09:19:08;101180.47;;;2.30;81.43
76448;BME280;65284;51.040;13.722;2023-02-15T09:21:36;101191.59;;;2.35;81.06
76448;BME280;65284;51.040;13.722;2023-02-15T09:24:05;101186.03;;;2.41;81.25
76448;BME280;65284;51.040;13.722;2023-02-15T09:26:35;101188.78;;;2.55;80.75
76448;BME280;65284;51.040;13.722;2023-02-15T09:29:02;101186.91;;;2.57;80.29
76448;BME280;65284;51.040;13.722;2023-02-15T09:31:38;101185.06;;;2.59;80.14
76448;BME280;65284;51.040;13.722;2023-02-15T09:34:05;101183.22;;;2.61;80.50
76448;BME280;65284;51.040;13.722;2023-02-15T09:36:36;101188.34;;;2.63;80.55
76448;BME280;65284;51.040;13.722;2023-02-15T09:39:11;101186.13;;;2.72;80.13
76448;BME280;65284;51.040;13.722;2023-02-15T09:52:25;101168.28;;;2.95;79.38
76448;BME280;65284;51.040;13.722;2023-02-15T09:55:31;101181.22;;;2.98;79.12
76448;BME280;65284;51.040;13.722;2023-02-15T10:03:42;101175.13;;;3.13;78.67
76448;BME280;65284;51.040;13.722;2023-02-15T10:06:23;101160.59;;;3.24;78.17
76448;BME280;65284;51.040;13.722;2023-02-15T10:14:55;101156.91;;;3.42;77.99
76448;BME280;65284;51.040;13.722;2023-02-15T10:17:35;101159.19;;;3.48;77.71
76448;BME280;65284;51.040;13.722;2023-02-15T10:20:40;101156.50;;;3.50;78.02
76448;BME280;65284;51.040;13.722;2023-02-15T10:26:22;101152.03;;;3.66;77.65
76448;BME280;65284;51.040;13.722;2023-02-15T10:31:23;101152.88;;;3.67;77.29
76448;BME280;65284;51.040;13.722;2023-02-15T10:34:19;101150.66;;;3.75;77.67
76448;BME280;65284;51.040;13.722;2023-02-15T10:36:51;101145.06;;;3.81;77.30
76448;BME280;65284;51.040;13.722;2023-02-15T10:47:52;101119.59;;;3.97;77.06
76448;BME280;65284;51.040;13.722;2023-02-15T10:50:45;101122.41;;;4.08;76.44
76448;BME280;65284;51.040;13.722;2023-02-15T10:53:23;101115.19;;;4.12;76.97
76448;BME280;65284;51.040;13.722;2023-02-15T10:56:09;101104.56;;;4.28;76.26
76448;BME280;65284;51.040;13.722;2023-02-15T10:59:07;101103.16;;;4.22;75.77
76448;BME280;65284;51.040;13.722;2023-02-15T11:02:00;101104.56;;;4.28;75.63
76448;BME280;65284;51.040;13.722;2023-02-15T11:04:42;101102.13;;;4.25;76.01
76448;BME280;65284;51.040;13.722;2023-02-15T11:07:16;101097.16;;;4.34;75.62
76448;BME280;65284;51.040;13.722;2023-02-15T11:10:01;101095.66;;;4.59;74.62
76448;BME280;65284;51.040;13.722;2023-02-15T11:12:32;101097.25;;;4.47;75.31
76448;BME280;65284;51.040;13.722;2023-02-15T11:15:11;101091.06;;;4.48;75.19
76448;BME280;65284;51.040;13.722;2023-02-15T11:17:43;101088.81;;;4.56;74.53
76448;BME280;65284;51.040;13.722;2023-02-15T11:20:23;101081.09;;;4.53;74.56
76448;BME280;65284;51.040;13.722;2023-02-15T11:22:52;101082.69;;;4.56;73.69
76448;BME280;65284;51.040;13.722;2023-02-15T11:25:25;101083.53;;;4.56;74.05
76448;BME280;65284;51.040;13.722;2023-02-15T11:27:52;101073.00;;;4.56;74.45
76448;BME280;65284;51.040;13.722;2023-02-15T11:30:25;101080.78;;;4.58;74.68
76448;BME280;65284;51.040;13.722;2023-02-15T11:32:54;101077.31;;;4.57;74.22
76448;BME280;65284;51.040;13.722;2023-02-15T11:35:32;101081.47;;;4.62;73.99
76448;BME280;65284;51.040;13.722;2023-02-15T11:38:17;101073.38;;;4.65;73.44
76448;BME280;65284;51.040;13.722;2023-02-15T11:41:10;101066.03;;;4.70;73.54
76448;BME280;65284;51.040;13.722;2023-02-15T11:43:47;101066.03;;;4.70;73.36
76448;BME280;65284;51.040;13.722;2023-02-15T11:46:16;101069.59;;;4.69;73.54
76448;BME280;65284;51.040;13.722;2023-02-15T11:48:42;101068.94;;;4.79;72.95
76448;BME280;65284;51.040;13.722;2023-02-15T11:51:14;101064.41;;;4.82;73.03
76448;BME280;65284;51.040;13.722;2023-02-15T11:53:42;101053.22;;;4.78;73.10
76448;BME280;65284;51.040;13.722;2023-02-15T11:56:14;101058.69;;;4.75;72.94
76448;BME280;65284;51.040;13.722;2023-02-15T11:59:45;101053.22;;;4.78;72.89
76448;BME280;65284;51.040;13.722;2023-02-15T12:01:51;101055.59;;;4.83;72.89
76448;BME280;65284;51.040;13.722;2023-02-15T12:04:34;101052.63;;;4.87;72.97
76448;BME280;65284;51.040;13.722;2023-02-15T12:07:15;101045.50;;;4.89;72.43
76448;BME280;65284;51.040;13.722;2023-02-15T12:12:40;101040.81;;;4.80;72.88
76448;BME280;65284;51.040;13.722;2023-02-15T12:15:08;101041.63;;;4.95;72.37
76448;BME280;65284;51.040;13.722;2023-02-15T12:17:50;101037.16;;;5.10;71.79
76448;BME280;65284;51.040;13.722;2023-02-15T12:22:53;101041.50;;;4.96;72.10
76448;BME280;65284;51.040;13.722;2023-02-15T12:25:23;101034.56;;;4.95;72.25
76448;BME280;65284;51.040;13.722;2023-02-15T12:27:52;101027.31;;;4.99;72.21
76448;BME280;65284;51.040;13.722;2023-02-15T12:30:22;101021.22;;;4.98;72.22
76448;BME280;65284;51.040;13.722;2023-02-15T12:32:53;101020.44;;;4.96;72.59
76448;BME280;65284;51.040;13.722;2023-02-15T12:35:29;101011.88;;;5.07;72.12
76448;BME280;65284;51.040;13.722;2023-02-15T12:38:21;100998.50;;;5.10;71.42
76448;BME280;65284;51.040;13.722;2023-02-15T12:41:25;101006.47;;;5.09;71.43
76448;BME280;65284;51.040;13.722;2023-02-15T12:44:18;101012.66;;;5.22;71.18
76448;BME280;65284;51.040;13.722;2023-02-15T12:49:36;101005.59;;;5.22;71.16
76448;BME280;65284;51.040;13.722;2023-02-15T12:52:06;100991.50;;;5.23;70.69
76448;BME280;65284;51.040;13.722;2023-02-15T12:54:48;100999.47;;;5.22;70.95
76448;BME280;65284;51.040;13.722;2023-02-15T12:57:25;100985.56;;;5.20;70.92
76448;BME280;65284;51.040;13.722;2023-02-15T13:02:53;100987.78;;;5.26;70.44
76448;BME280;65284;51.040;13.722;2023-02-15T13:05:38;100985.69;;;5.18;70.60
76448;BME280;65284;51.040;13.722;2023-02-15T13:08:18;100989.91;;;5.21;70.50
76448;BME280;65284;51.040;13.722;2023-02-15T13:13:20;100984.50;;;5.22;70.79
76448;BME280;65284;51.040;13.722;2023-02-15T13:15:49;100985.75;;;5.17;70.71
76448;BME280;65284;51.040;13.722;2023-02-15T13:18:29;100989.56;;;5.25;70.92
76448;BME280;65284;51.040;13.722;2023-02-15T13:20:56;100980.63;;;5.28;71.03
76448;BME280;65284;51.040;13.722;2023-02-15T13:23:27;100990.63;;;5.23;70.86
76448;BME280;65284;51.040;13.722;2023-02-15T13:25:58;100981.78;;;5.24;70.42
76448;BME280;65284;51.040;13.722;2023-02-15T13:28:36;100980.84;;;5.25;70.61
76448;BME280;65284;51.040;13.722;2023-02-15T13:31:03;100984.22;;;5.27;69.90
76448;BME280;65284;51.040;13.722;2023-02-15T13:33:34;100982.50;;;5.26;70.55
76448;BME280;65284;51.040;13.722;2023-02-15T13:38:45;100984.72;;;5.32;70.68
76448;BME280;65284;51.040;13.722;2023-02-15T13:41:16;100991.72;;;5.33;70.70
76448;BME280;65284;51.040;13.722;2023-02-15T13:44:03;100993.59;;;5.31;70.42
76448;BME280;65284;51.040;13.722;2023-02-15T13:46:51;100991.84;;;5.44;70.10
76448;BME280;65284;51.040;13.722;2023-02-15T13:54:39;100996.34;;;5.42;70.13
76448;BME280;65284;51.040;13.722;2023-02-15T14:00:21;100996.56;;;5.39;70.17
76448;BME280;65284;51.040;13.722;2023-02-15T14:02:56;100998.03;;;5.43;70.12
76448;BME280;65284;51.040;13.722;2023-02-15T14:08:40;100993.41;;;5.60;69.47
76448;BME280;65284;51.040;13.722;2023-02-15T14:17:30;100986.66;;;5.81;68.38
76448;BME280;65284;51.040;13.722;2023-02-15T14:20:17;100991.31;;;5.78;69.21
76448;BME280;65284;51.040;13.722;2023-02-15T14:22:54;100985.00;;;5.80;68.42
76448;BME280;65284;51.040;13.722;2023-02-15T14:28:11;100983.81;;;5.84;68.71
76448;BME280;65284;51.040;13.722;2023-02-15T14:30:43;100974.25;;;5.83;68.39
76448;BME280;65284;51.040;13.722;2023-02-15T14:35:41;100972.66;;;5.93;67.78
76448;BME280;65284;51.040;13.722;2023-02-15T14:40:48;100975.22;;;5.95;67.80
76448;BME280;65284;51.040;13.722;2023-02-15T14:43:47;100975.31;;;5.93;67.71
76448;BME280;65284;51.040;13.722;2023-02-15T14:46:29;100972.97;;;6.02;67.67
76448;BME280;65284;51.040;13.722;2023-02-15T14:49:03;100984.06;;;6.07;67.81
76448;BME280;65284;51.040;13.722;2023-02-15T14:54:07;100979.16;;;6.26;66.89